Noroton Heights, Connecticut
Current Conditions -  °F | °C
As of 1:56 AM on Saturday 20 Dec 2014 (Local Time) from KHPN Reporting Station
Clear Clear  
Wind Chill: 19°   Ceiling: Unl
Heat Index: 27°   Visibility: 10mi
Dew Point: 19°   Wind: 8mph
Humidity: 72%   Direction: 350°N
Pressure: 30.16"   Gusts: NA
Location:  41.0804°N, 73.4823°W
Report Text: KHPN 200656Z 35007KT 10SM CLR M03/M07 A3016 RMK AO2 SLP224 T10281072
Loading
Personal Weather Stations






























Interactive Weather Map New forecast layout! Learn more

10-Day Weather Forecast

Advertisements
Track Severe Weather on mobile